Time;durP1;ratioP1;P1;durP2;ratioP2;P2;SDS_P1;SDS_P2;PMS_P1;PMS_P2;Temp;Humidity;BMP_temperature;BMP_pressure;BME280_temperature;BME280_humidity;BME280_pressure;Samples;Min_cycle;Max_cycle;Signal;HPM_P1;HPM_P2
2022/12/14 00:00:34;;;;;;;43.00;20.33;;;;;;;;;;6245740;23;20023;-65
2022/12/14 00:03:00;;;;;;;39.33;20.83;;;;;;;;;;6245254;23;20004;-65
2022/12/14 00:05:27;;;;;;;41.22;21.42;;;;;;;;;;6245180;23;20024;-65
2022/12/14 00:07:53;;;;;;;40.78;20.35;;;;;;;;;;6245523;23;20062;-65
2022/12/14 00:10:20;;;;;;;34.72;18.73;;;;;;;;;;6245185;22;20511;-65
2022/12/14 00:12:46;;;;;;;41.20;20.23;;;;;;;;;;6245278;23;20133;-65
2022/12/14 00:15:13;;;;;;;42.85;21.40;;;;;;;;;;6245262;23;20349;-65
2022/12/14 00:17:39;;;;;;;41.20;22.20;;;;;;;;;;6244964;23;20416;-65
2022/12/14 00:20:05;;;;;;;41.92;21.90;;;;;;;;;;6245345;23;20006;-65
2022/12/14 00:22:31;;;;;;;36.60;19.90;;;;;;;;;;6245003;23;20062;-65
2022/12/14 00:24:57;;;;;;;35.05;18.13;;;;;;;;;;6245223;23;20007;-65
2022/12/14 00:27:24;;;;;;;34.38;19.20;;;;;;;;;;6245049;22;20008;-65
2022/12/14 00:29:50;;;;;;;39.28;18.77;;;;;;;;;;6245586;22;20010;-65
2022/12/14 00:32:16;;;;;;;40.65;19.08;;;;;;;;;;6244679;23;20054;-65
2022/12/14 00:34:42;;;;;;;38.92;19.35;;;;;;;;;;6244916;23;20480;-65
2022/12/14 00:37:08;;;;;;;36.47;19.70;;;;;;;;;;6245186;23;20008;-65
2022/12/14 00:39:34;;;;;;;35.63;18.75;;;;;;;;;;6243424;23;20023;-65
2022/12/14 00:42:00;;;;;;;36.30;18.38;;;;;;;;;;6245510;23;20384;-65
2022/12/14 00:44:26;;;;;;;33.38;17.83;;;;;;;;;;6244908;23;20000;-65
2022/12/14 00:46:53;;;;;;;37.90;19.40;;;;;;;;;;6244756;23;20450;-65
2022/12/14 00:49:19;;;;;;;34.33;17.35;;;;;;;;;;6244853;23;19996;-65
2022/12/14 00:51:45;;;;;;;37.80;18.08;;;;;;;;;;6245226;23;20079;-65
2022/12/14 00:54:11;;;;;;;32.97;18.42;;;;;;;;;;6245017;23;20334;-65
2022/12/14 00:56:37;;;;;;;35.65;19.45;;;;;;;;;;6244888;23;20079;-65
2022/12/14 00:59:03;;;;;;;38.83;19.75;;;;;;;;;;6245049;23;20008;-65
2022/12/14 01:01:29;;;;;;;34.55;18.05;;;;;;;;;;6242707;23;20000;-65
2022/12/14 01:06:41;;;;;;;39.25;19.58;;;;;;;;;;6244799;23;20126;-65
2022/12/14 01:09:07;;;;;;;38.55;20.30;;;;;;;;;;6245125;23;20004;-65
2022/12/14 01:11:33;;;;;;;36.50;20.25;;;;;;;;;;6244672;23;20008;-65
2022/12/14 01:13:59;;;;;;;37.17;18.73;;;;;;;;;;6244419;23;20343;-65
2022/12/14 01:16:26;;;;;;;44.03;21.05;;;;;;;;;;6244650;23;20004;-65
2022/12/14 01:18:52;;;;;;;42.00;21.17;;;;;;;;;;6244648;23;20079;-64
2022/12/14 01:21:18;;;;;;;39.13;19.92;;;;;;;;;;6244652;23;20438;-65
2022/12/14 01:23:45;;;;;;;43.05;22.60;;;;;;;;;;6244705;23;20004;-65
2022/12/14 01:26:15;;;;;;;42.35;21.67;;;;;;;;;;6244826;23;20010;-65
2022/12/14 01:28:41;;;;;;;44.75;22.73;;;;;;;;;;6244411;23;20012;-65
2022/12/14 01:31:15;;;;;;;43.33;21.80;;;;;;;;;;6244883;23;20004;-65
2022/12/14 01:33:41;;;;;;;43.33;20.05;;;;;;;;;;6244450;23;20004;-65
2022/12/14 01:36:09;;;;;;;38.08;21.50;;;;;;;;;;6244784;23;19999;-65
2022/12/14 01:38:35;;;;;;;41.47;20.98;;;;;;;;;;6244247;23;20004;-65
2022/12/14 01:41:02;;;;;;;43.75;22.70;;;;;;;;;;6244971;23;20376;-65
2022/12/14 01:43:47;;;;;;;47.72;23.20;;;;;;;;;;6244054;23;20073;-65
2022/12/14 01:46:14;;;;;;;48.67;23.77;;;;;;;;;;6244479;23;20091;-65
2022/12/14 01:48:40;;;;;;;45.67;22.75;;;;;;;;;;6244281;23;20011;-65
2022/12/14 01:51:06;;;;;;;44.05;22.55;;;;;;;;;;6244813;23;20014;-65
2022/12/14 01:53:32;;;;;;;45.50;22.65;;;;;;;;;;6244245;23;20482;-65
2022/12/14 01:55:58;;;;;;;45.25;23.13;;;;;;;;;;6244666;23;20032;-65
2022/12/14 01:58:27;;;;;;;41.97;22.65;;;;;;;;;;6243915;23;20015;-65
2022/12/14 02:00:54;;;;;;;45.50;22.52;;;;;;;;;;6244396;22;20085;-65
2022/12/14 02:03:29;;;;;;;37.53;21.70;;;;;;;;;;6244457;23;20335;-65
2022/12/14 02:05:59;;;;;;;41.95;22.42;;;;;;;;;;6244554;23;20374;-65
2022/12/14 02:08:26;;;;;;;42.28;21.65;;;;;;;;;;6244341;23;20470;-65
2022/12/14 02:10:53;;;;;;;46.58;21.45;;;;;;;;;;6244281;23;20004;-65
2022/12/14 02:13:23;;;;;;;41.30;21.10;;;;;;;;;;6244339;23;20022;-65
2022/12/14 02:15:50;;;;;;;38.78;20.92;;;;;;;;;;6246506;23;20012;-65
2022/12/14 02:18:18;;;;;;;45.42;21.70;;;;;;;;;;6246424;23;20012;-65
2022/12/14 02:20:55;;;;;;;44.35;22.85;;;;;;;;;;6246241;23;20049;-65
2022/12/14 02:23:27;;;;;;;45.83;21.58;;;;;;;;;;6246473;23;20046;-65
2022/12/14 02:26:14;;;;;;;44.78;21.02;;;;;;;;;;6246537;23;20012;-65
2022/12/14 02:28:59;;;;;;;42.63;20.63;;;;;;;;;;6245777;23;20466;-65
2022/12/14 02:31:36;;;;;;;47.15;23.05;;;;;;;;;;6246360;23;20024;-65
2022/12/14 02:34:11;;;;;;;47.45;23.40;;;;;;;;;;6246484;23;20004;-65
2022/12/14 02:37:00;;;;;;;44.20;22.27;;;;;;;;;;6246153;23;20079;-65
2022/12/14 02:39:42;;;;;;;47.15;23.90;;;;;;;;;;6230817;23;20016;-65
2022/12/14 02:42:10;;;;;;;47.83;23.33;;;;;;;;;;6245889;23;20012;-65
2022/12/14 02:44:43;;;;;;;49.58;24.15;;;;;;;;;;6246113;22;20008;-66
2022/12/14 02:47:12;;;;;;;43.97;23.27;;;;;;;;;;6246341;23;20016;-65
2022/12/14 02:49:48;;;;;;;44.92;23.25;;;;;;;;;;6246016;23;20003;-65
2022/12/14 02:52:33;;;;;;;46.33;23.45;;;;;;;;;;6246272;23;20004;-65
2022/12/14 02:55:06;;;;;;;50.65;24.67;;;;;;;;;;6246415;23;20004;-65
2022/12/14 02:57:36;;;;;;;52.47;23.83;;;;;;;;;;6245894;23;20417;-65
2022/12/14 03:00:04;;;;;;;51.10;22.75;;;;;;;;;;6246166;23;20012;-65
2022/12/14 03:02:30;;;;;;;50.38;23.60;;;;;;;;;;6246052;23;20075;-65
2022/12/14 03:04:58;;;;;;;50.17;23.02;;;;;;;;;;6246065;22;20011;-65
2022/12/14 03:07:27;;;;;;;44.03;22.52;;;;;;;;;;6246411;23;20111;-65
2022/12/14 03:09:53;;;;;;;44.67;22.73;;;;;;;;;;6246055;23;20004;-65
2022/12/14 03:12:21;;;;;;;45.85;22.42;;;;;;;;;;6245477;23;20049;-65
2022/12/14 03:14:50;;;;;;;44.45;23.65;;;;;;;;;;6245691;22;20015;-65
2022/12/14 03:17:21;;;;;;;42.17;21.83;;;;;;;;;;6246094;23;20495;-65
2022/12/14 03:19:50;;;;;;;49.17;23.30;;;;;;;;;;6245818;23;20320;-65
2022/12/14 03:22:25;;;;;;;49.50;23.90;;;;;;;;;;6245872;23;20015;-65
2022/12/14 03:24:54;;;;;;;43.17;22.88;;;;;;;;;;6245050;23;20010;-65
2022/12/14 03:27:27;;;;;;;45.35;23.27;;;;;;;;;;6245719;23;20008;-65
2022/12/14 03:29:58;;;;;;;41.38;22.90;;;;;;;;;;6245886;23;20446;-65
2022/12/14 03:32:27;;;;;;;43.25;21.02;;;;;;;;;;6245983;23;20058;-65
2022/12/14 03:34:53;;;;;;;44.75;23.00;;;;;;;;;;6245517;23;20000;-65
2022/12/14 03:37:22;;;;;;;41.33;21.33;;;;;;;;;;6245792;23;20190;-65
2022/12/14 03:39:48;;;;;;;47.67;24.00;;;;;;;;;;6245234;23;20020;-65
2022/12/14 03:42:20;;;;;;;43.60;21.92;;;;;;;;;;6245735;23;20000;-65
2022/12/14 03:45:05;;;;;;;43.75;22.40;;;;;;;;;;6245377;23;20004;-65
2022/12/14 03:47:50;;;;;;;45.53;21.42;;;;;;;;;;6245412;23;20043;-65
2022/12/14 03:50:19;;;;;;;41.63;21.30;;;;;;;;;;6245843;23;20015;-65
2022/12/14 03:53:03;;;;;;;45.13;22.30;;;;;;;;;;6245379;23;20004;-65
2022/12/14 03:55:45;;;;;;;48.33;21.70;;;;;;;;;;6245127;23;20008;-65
2022/12/14 03:58:11;;;;;;;44.20;23.17;;;;;;;;;;6245583;23;20031;-65
2022/12/14 04:00:44;;;;;;;40.13;19.92;;;;;;;;;;6245218;23;20079;-66
2022/12/14 04:03:10;;;;;;;;;;;;;;;;;;6246213;23;20004;-65
2022/12/14 04:05:42;;;;;;;39.28;19.92;;;;;;;;;;6245129;23;19906;-65
2022/12/14 04:08:31;;;;;;;36.60;19.00;;;;;;;;;;6245080;23;20087;-65
2022/12/14 04:19:22;;;;;;;36.67;18.83;;;;;;;;;;6245207;23;20079;-65
2022/12/14 04:21:48;;;;;;;33.25;17.30;;;;;;;;;;6244835;23;20005;-65
2022/12/14 04:27:06;;;;;;;29.35;14.35;;;;;;;;;;6245171;23;20004;-65
2022/12/14 04:32:30;;;;;;;22.23;11.88;;;;;;;;;;6245352;23;20000;-65
2022/12/14 04:35:02;;;;;;;19.02;11.13;;;;;;;;;;6244826;23;20449;-66
2022/12/14 04:37:29;;;;;;;22.77;10.15;;;;;;;;;;6244507;23;20014;-65
2022/12/14 04:40:21;;;;;;;16.85;9.05;;;;;;;;;;6245116;23;20000;-66
2022/12/14 04:42:53;;;;;;;14.60;8.23;;;;;;;;;;6122573;23;20392;-65
2022/12/14 04:45:28;;;;;;;13.67;8.13;;;;;;;;;;6123152;23;20006;-65
2022/12/14 04:48:07;;;;;;;17.00;7.45;;;;;;;;;;6122794;23;20020;-65
2022/12/14 04:50:36;;;;;;;14.50;7.70;;;;;;;;;;6123216;23;20391;-65
2022/12/14 04:53:07;;;;;;;15.63;8.40;;;;;;;;;;6122319;23;20006;-65
2022/12/14 04:55:39;;;;;;;16.75;7.78;;;;;;;;;;6123032;23;20345;-66
2022/12/14 04:58:23;;;;;;;13.67;7.87;;;;;;;;;;6122685;23;20024;-65
2022/12/14 05:00:58;;;;;;;13.68;7.88;;;;;;;;;;6122686;23;20564;-65
2022/12/14 05:03:29;;;;;;;16.70;8.43;;;;;;;;;;6122888;23;20092;-65
2022/12/14 05:05:57;;;;;;;12.10;7.28;;;;;;;;;;6122621;23;20013;-65
2022/12/14 05:08:29;;;;;;;15.32;8.18;;;;;;;;;;6122917;23;20054;-65
2022/12/14 05:11:15;;;;;;;19.42;9.02;;;;;;;;;;6122712;23;20405;-65
2022/12/14 05:13:44;;;;;;;12.35;7.45;;;;;;;;;;6122161;23;20026;-65
2022/12/14 05:16:11;;;;;;;15.77;8.95;;;;;;;;;;6122772;23;20013;-65
2022/12/14 05:18:37;;;;;;;13.35;8.05;;;;;;;;;;6136753;23;20014;-66
2022/12/14 05:21:03;;;;;;;15.32;8.70;;;;;;;;;;6244415;23;20007;-65
2022/12/14 05:23:29;;;;;;;14.30;8.00;;;;;;;;;;6244910;23;20000;-65
2022/12/14 05:25:55;;;;;;;16.48;9.20;;;;;;;;;;6242273;23;20046;-65
2022/12/14 05:28:22;;;;;;;13.43;7.63;;;;;;;;;;6244106;23;20016;-66
2022/12/14 05:30:48;;;;;;;15.40;8.02;;;;;;;;;;6244132;23;20346;-65
2022/12/14 05:33:18;;;;;;;14.57;7.40;;;;;;;;;;6243145;23;20384;-65
2022/12/14 05:35:44;;;;;;;13.50;7.50;;;;;;;;;;6244339;22;20008;-66
2022/12/14 05:38:11;;;;;;;14.15;7.78;;;;;;;;;;6244951;23;20318;-65
2022/12/14 05:40:38;;;;;;;14.27;8.48;;;;;;;;;;6245467;22;20003;-65
2022/12/14 05:43:09;;;;;;;14.25;8.18;;;;;;;;;;6244510;23;20000;-66
2022/12/14 05:45:35;;;;;;;13.73;8.55;;;;;;;;;;6244662;22;20004;-66
2022/12/14 05:48:02;;;;;;;17.70;8.23;;;;;;;;;;6243942;23;20004;-65
2022/12/14 05:50:28;;;;;;;14.70;8.77;;;;;;;;;;6244309;23;20008;-66
2022/12/14 05:52:54;;;;;;;18.20;8.85;;;;;;;;;;6244741;23;20004;-65
2022/12/14 05:55:21;;;;;;;16.65;9.00;;;;;;;;;;6245222;22;20500;-66
2022/12/14 05:57:47;;;;;;;16.10;8.68;;;;;;;;;;6243148;23;20000;-65
2022/12/14 06:00:13;;;;;;;14.82;8.85;;;;;;;;;;6244613;23;20074;-66
2022/12/14 06:02:39;;;;;;;14.45;8.65;;;;;;;;;;6244748;23;19996;-66
2022/12/14 06:05:06;;;;;;;16.55;8.07;;;;;;;;;;6243063;23;20012;-65
2022/12/14 06:07:32;;;;;;;17.10;7.82;;;;;;;;;;6244684;23;20004;-66
2022/12/14 06:09:58;;;;;;;14.65;7.75;;;;;;;;;;6244194;23;20008;-65
2022/12/14 06:12:25;;;;;;;19.45;8.52;;;;;;;;;;6244984;23;20000;-65
2022/12/14 06:14:51;;;;;;;13.55;7.03;;;;;;;;;;6244358;22;20027;-66
2022/12/14 06:17:17;;;;;;;13.55;7.55;;;;;;;;;;6244579;23;20032;-66
2022/12/14 06:19:43;;;;;;;13.10;7.32;;;;;;;;;;6242974;23;20354;-66
2022/12/14 06:22:09;;;;;;;13.73;7.13;;;;;;;;;;6242174;23;19996;-66
2022/12/14 06:24:35;;;;;;;11.55;6.57;;;;;;;;;;6243578;23;20441;-66
2022/12/14 06:27:01;;;;;;;16.42;7.43;;;;;;;;;;6244296;23;20038;-66
2022/12/14 06:29:27;;;;;;;14.20;7.88;;;;;;;;;;6244402;23;20335;-67
2022/12/14 06:31:53;;;;;;;12.52;7.25;;;;;;;;;;6244284;23;20001;-66
2022/12/14 06:34:20;;;;;;;15.43;7.07;;;;;;;;;;6242673;23;20019;-66
2022/12/14 06:36:46;;;;;;;13.95;7.45;;;;;;;;;;6243406;23;20314;-66
2022/12/14 06:39:14;;;;;;;15.05;7.53;;;;;;;;;;6243402;23;20604;-66
2022/12/14 06:41:40;;;;;;;13.48;6.85;;;;;;;;;;6243140;23;19997;-66
2022/12/14 06:44:09;;;;;;;14.88;7.18;;;;;;;;;;6243910;23;20004;-66
2022/12/14 06:46:35;;;;;;;12.88;6.30;;;;;;;;;;6241380;23;20001;-66
2022/12/14 06:49:02;;;;;;;11.15;6.50;;;;;;;;;;6243592;23;20383;-66
2022/12/14 06:51:28;;;;;;;8.80;5.88;;;;;;;;;;6240548;23;20083;-66
2022/12/14 06:53:55;;;;;;;9.82;6.32;;;;;;;;;;6242865;23;20015;-66
2022/12/14 06:56:22;;;;;;;16.88;6.90;;;;;;;;;;6242324;23;20008;-66
2022/12/14 06:58:48;;;;;;;8.35;5.50;;;;;;;;;;6243298;23;20087;-66
2022/12/14 07:01:19;;;;;;;11.13;6.72;;;;;;;;;;6244199;23;20008;-66
2022/12/14 07:03:53;;;;;;;11.07;5.78;;;;;;;;;;6244922;22;20001;-66
2022/12/14 07:06:20;;;;;;;10.02;5.85;;;;;;;;;;6244674;23;20061;-66
2022/12/14 07:08:47;;;;;;;11.18;5.97;;;;;;;;;;6245137;22;20338;-69
2022/12/14 07:11:14;;;;;;;10.88;5.70;;;;;;;;;;6245328;22;20007;-66
2022/12/14 07:13:41;;;;;;;10.05;6.38;;;;;;;;;;6244646;23;20047;-66
2022/12/14 07:16:08;;;;;;;15.23;6.55;;;;;;;;;;6244973;23;20004;-66
2022/12/14 07:18:34;;;;;;;13.07;6.60;;;;;;;;;;6242251;23;20434;-66
2022/12/14 07:21:11;;;;;;;12.05;6.78;;;;;;;;;;6244104;23;20000;-66
2022/12/14 07:23:37;;;;;;;17.50;11.30;;;;;;;;;;6244220;23;20011;-66
2022/12/14 07:26:05;;;;;;;19.40;8.75;;;;;;;;;;6244204;23;20000;-66
2022/12/14 07:28:31;;;;;;;16.58;9.88;;;;;;;;;;6244434;23;20012;-65
2022/12/14 07:30:58;;;;;;;13.77;8.95;;;;;;;;;;6242885;23;20054;-66
2022/12/14 07:33:25;;;;;;;10.63;6.55;;;;;;;;;;6244277;23;20062;-66
2022/12/14 07:35:51;;;;;;;14.82;6.95;;;;;;;;;;6244018;23;20025;-66
2022/12/14 07:38:18;;;;;;;13.02;5.47;;;;;;;;;;6242590;23;20366;-66
2022/12/14 07:40:44;;;;;;;9.65;5.70;;;;;;;;;;6243475;23;20026;-66
2022/12/14 07:43:10;;;;;;;10.05;5.00;;;;;;;;;;6243660;23;20000;-66
2022/12/14 07:45:36;;;;;;;13.63;5.45;;;;;;;;;;6242630;23;20365;-66
2022/12/14 07:48:02;;;;;;;7.47;4.68;;;;;;;;;;6243108;23;20008;-66
2022/12/14 07:50:29;;;;;;;11.48;4.68;;;;;;;;;;6243335;23;20004;-66
2022/12/14 07:52:55;;;;;;;11.02;6.18;;;;;;;;;;6243162;23;20035;-66
2022/12/14 07:55:21;;;;;;;8.02;4.55;;;;;;;;;;6242597;23;20008;-66
2022/12/14 07:57:47;;;;;;;11.10;5.53;;;;;;;;;;6243179;23;20047;-65
2022/12/14 08:00:13;;;;;;;8.07;5.28;;;;;;;;;;6242475;23;20507;-65
2022/12/14 08:02:39;;;;;;;14.23;5.10;;;;;;;;;;6243344;23;20094;-66
2022/12/14 08:05:05;;;;;;;10.57;4.03;;;;;;;;;;6242261;23;20050;-66
2022/12/14 08:07:32;;;;;;;8.35;4.10;;;;;;;;;;6242853;23;20004;-66
2022/12/14 08:09:58;;;;;;;7.05;4.43;;;;;;;;;;6242376;23;20008;-66
2022/12/14 08:12:24;;;;;;;8.73;4.25;;;;;;;;;;6242490;23;20403;-66
2022/12/14 08:14:50;;;;;;;8.68;4.60;;;;;;;;;;6242009;23;20012;-66
2022/12/14 08:17:16;;;;;;;9.32;4.40;;;;;;;;;;6242838;22;20008;-66
2022/12/14 08:19:43;;;;;;;13.52;4.38;;;;;;;;;;6243031;23;20000;-66
2022/12/14 08:22:10;;;;;;;7.25;3.72;;;;;;;;;;6242484;22;20012;-66
2022/12/14 08:24:36;;;;;;;7.18;3.75;;;;;;;;;;6242909;22;20437;-66
2022/12/14 08:27:02;;;;;;;9.07;4.40;;;;;;;;;;6242896;23;20000;-66
2022/12/14 08:29:28;;;;;;;12.13;4.75;;;;;;;;;;6242814;23;20054;-66
2022/12/14 08:31:55;;;;;;;12.15;4.70;;;;;;;;;;6242764;23;20008;-66
2022/12/14 08:34:21;;;;;;;8.27;3.92;;;;;;;;;;6242516;23;20008;-66
2022/12/14 08:36:48;;;;;;;12.55;4.70;;;;;;;;;;6242607;22;20008;-66
2022/12/14 08:39:14;;;;;;;11.05;4.20;;;;;;;;;;6242146;23;20008;-66
2022/12/14 08:41:40;;;;;;;8.50;4.10;;;;;;;;;;6242749;23;20015;-66
2022/12/14 08:44:07;;;;;;;9.07;4.03;;;;;;;;;;6242186;23;19997;-66
2022/12/14 08:46:36;;;;;;;7.15;4.32;;;;;;;;;;6242903;23;20036;-66
2022/12/14 08:49:02;;;;;;;8.10;4.32;;;;;;;;;;6242453;22;20003;-66
2022/12/14 08:51:29;;;;;;;10.70;4.47;;;;;;;;;;6242856;23;20418;-66
2022/12/14 08:53:56;;;;;;;9.57;4.22;;;;;;;;;;6243064;23;20011;-66
2022/12/14 08:56:23;;;;;;;9.07;3.85;;;;;;;;;;6242502;23;20087;-66
2022/12/14 08:58:50;;;;;;;7.18;4.35;;;;;;;;;;6242123;23;20000;-66
2022/12/14 09:01:18;;;;;;;9.15;3.92;;;;;;;;;;6242350;23;20058;-66
2022/12/14 09:03:45;;;;;;;11.02;3.85;;;;;;;;;;6242851;23;19996;-66
2022/12/14 09:06:12;;;;;;;9.00;4.05;;;;;;;;;;6242365;23;20008;-66
2022/12/14 09:08:38;;;;;;;10.88;4.00;;;;;;;;;;6243230;23;20004;-66
2022/12/14 09:11:05;;;;;;;10.10;3.25;;;;;;;;;;6242294;23;20004;-66
2022/12/14 09:13:32;;;;;;;7.57;4.03;;;;;;;;;;6241257;23;20023;-66
2022/12/14 09:16:03;;;;;;;9.95;3.50;;;;;;;;;;6242679;22;20346;-66
2022/12/14 09:18:29;;;;;;;9.90;5.32;;;;;;;;;;6242380;23;20032;-66
2022/12/14 09:20:56;;;;;;;6.75;3.60;;;;;;;;;;6241952;22;20004;-66
2022/12/14 09:23:23;;;;;;;7.90;3.78;;;;;;;;;;6242352;23;20054;-66
2022/12/14 09:26:02;;;;;;;7.03;3.35;;;;;;;;;;6242419;23;20000;-66
2022/12/14 09:28:29;;;;;;;7.38;3.55;;;;;;;;;;6241839;23;20358;-66
2022/12/14 09:30:59;;;;;;;7.53;3.60;;;;;;;;;;6240909;23;20004;-65
2022/12/14 09:33:25;;;;;;;9.13;3.90;;;;;;;;;;6241020;23;20470;-66
2022/12/14 09:35:51;;;;;;;10.13;4.20;;;;;;;;;;6242667;23;20008;-66
2022/12/14 09:38:18;;;;;;;11.48;3.60;;;;;;;;;;6242481;23;20008;-67
2022/12/14 09:40:48;;;;;;;8.38;4.43;;;;;;;;;;6242541;23;20016;-67
2022/12/14 09:43:26;;;;;;;8.05;4.20;;;;;;;;;;6242455;23;20078;-67
2022/12/14 09:45:54;;;;;;;22.20;11.60;;;;;;;;;;6243339;23;20446;-67
2022/12/14 09:48:23;;;;;;;13.15;4.53;;;;;;;;;;6243384;23;20012;-67
2022/12/14 09:50:50;;;;;;;7.60;3.97;;;;;;;;;;6243318;23;20011;-67
2022/12/14 09:53:17;;;;;;;11.93;4.63;;;;;;;;;;6243305;23;20103;-67
2022/12/14 09:55:50;;;;;;;13.38;6.35;;;;;;;;;;6243333;23;20008;-67
2022/12/14 09:58:21;;;;;;;13.20;4.80;;;;;;;;;;6243210;23;20038;-67
2022/12/14 10:00:47;;;;;;;12.63;5.28;;;;;;;;;;6242919;23;20047;-67
2022/12/14 10:03:39;;;;;;;14.82;5.15;;;;;;;;;;6243782;23;20006;-67
2022/12/14 10:06:21;;;;;;;13.48;4.60;;;;;;;;;;6238068;23;20015;-67
2022/12/14 10:08:53;;;;;;;9.25;5.03;;;;;;;;;;6243057;22;20087;-67
2022/12/14 10:11:51;;;;;;;11.87;4.03;;;;;;;;;;6242350;23;20357;-67
2022/12/14 10:14:17;;;;;;;11.85;4.72;;;;;;;;;;6176545;22;20099;-67
2022/12/14 10:16:59;;;;;;;8.85;4.32;;;;;;;;;;6243474;23;20008;-67
2022/12/14 10:19:25;;;;;;;16.63;5.70;;;;;;;;;;6243020;22;20011;-67
2022/12/14 10:21:54;;;;;;;11.93;4.70;;;;;;;;;;6241661;23;20012;-67
2022/12/14 10:24:25;;;;;;;9.23;4.32;;;;;;;;;;6242592;23;20014;-67
2022/12/14 10:26:52;;;;;;;8.88;3.50;;;;;;;;;;6241655;23;20010;-67
2022/12/14 10:29:22;;;;;;;12.30;5.75;;;;;;;;;;6242462;23;20004;-67
2022/12/14 10:32:06;;;;;;;10.38;3.72;;;;;;;;;;6241696;23;20079;-67
2022/12/14 10:34:33;;;;;;;7.25;4.57;;;;;;;;;;6242648;23;20089;-67
2022/12/14 10:37:04;;;;;;;11.65;4.75;;;;;;;;;;6243489;22;20008;-68
2022/12/14 10:39:36;;;;;;;9.40;4.47;;;;;;;;;;6244039;22;20008;-68
2022/12/14 10:42:07;;;;;;;12.88;4.15;;;;;;;;;;6243748;23;20032;-68
2022/12/14 10:44:39;;;;;;;10.75;4.70;;;;;;;;;;6244252;23;20032;-68
2022/12/14 10:47:11;;;;;;;9.55;4.35;;;;;;;;;;6243874;23;20004;-68
2022/12/14 10:50:00;;;;;;;8.95;4.28;;;;;;;;;;6243852;23;20034;-68
2022/12/14 10:52:30;;;;;;;10.32;4.13;;;;;;;;;;6228906;23;20035;-68
2022/12/14 10:55:00;;;;;;;13.05;5.30;;;;;;;;;;6244710;23;20007;-68
2022/12/14 10:57:27;;;;;;;14.55;4.72;;;;;;;;;;6244681;23;20003;-68
2022/12/14 10:59:53;;;;;;;11.63;4.55;;;;;;;;;;6245761;23;20004;-68
2022/12/14 11:02:24;;;;;;;14.65;5.22;;;;;;;;;;6245053;23;20004;-68
2022/12/14 11:04:50;;;;;;;11.52;5.18;;;;;;;;;;6244104;23;20004;-68
2022/12/14 11:07:18;;;;;;;12.48;5.28;;;;;;;;;;6244807;23;20031;-69
2022/12/14 11:09:44;;;;;;;15.27;5.25;;;;;;;;;;6245072;22;20319;-68
2022/12/14 11:12:14;;;;;;;10.52;4.13;;;;;;;;;;6243622;23;20075;-67
2022/12/14 11:15:00;;;;;;;10.73;4.38;;;;;;;;;;6244036;22;20083;-68
2022/12/14 11:17:32;;;;;;;8.48;3.78;;;;;;;;;;6244527;23;20000;-68
2022/12/14 11:20:13;;;;;;;10.35;3.88;;;;;;;;;;6241971;23;20012;-68
2022/12/14 11:22:44;;;;;;;9.48;3.88;;;;;;;;;;6242869;23;20008;-67
2022/12/14 11:25:28;;;;;;;9.02;3.78;;;;;;;;;;6242085;23;20012;-68
2022/12/14 11:27:55;;;;;;;7.13;2.67;;;;;;;;;;6242844;23;20058;-67
2022/12/14 11:30:21;;;;;;;2.75;1.42;;;;;;;;;;6244047;23;20751;-67
2022/12/14 11:32:48;;;;;;;3.30;1.40;;;;;;;;;;6243910;23;20075;-67
2022/12/14 11:35:16;;;;;;;4.72;1.98;;;;;;;;;;6243761;23;20034;-67
2022/12/14 11:37:42;;;;;;;9.10;3.55;;;;;;;;;;6243915;23;20315;-67
2022/12/14 11:40:17;;;;;;;7.40;3.65;;;;;;;;;;6243827;23;20001;-67
2022/12/14 11:42:48;;;;;;;3.65;1.92;;;;;;;;;;6244403;23;20343;-67
2022/12/14 11:45:33;;;;;;;5.80;2.25;;;;;;;;;;6241884;23;20042;-67
2022/12/14 11:48:29;;;;;;;8.13;2.63;;;;;;;;;;6244228;23;20004;-67
2022/12/14 11:51:09;;;;;;;5.68;2.33;;;;;;;;;;6219278;22;20469;-67
2022/12/14 11:53:35;;;;;;;4.68;1.85;;;;;;;;;;6243825;22;20035;-67
2022/12/14 11:56:03;;;;;;;3.53;1.92;;;;;;;;;;6243132;23;20012;-68
2022/12/14 11:58:34;;;;;;;6.38;1.67;;;;;;;;;;6243161;23;20004;-68
2022/12/14 12:01:10;;;;;;;2.38;1.60;;;;;;;;;;6243813;23;20000;-68
2022/12/14 12:03:40;;;;;;;3.05;1.80;;;;;;;;;;6244225;23;20000;-68
2022/12/14 12:06:09;;;;;;;5.70;1.77;;;;;;;;;;6243622;23;20015;-68
2022/12/14 12:08:37;;;;;;;7.97;2.00;;;;;;;;;;6244031;22;20087;-68
2022/12/14 12:11:05;;;;;;;4.55;1.73;;;;;;;;;;6241256;23;20070;-68
2022/12/14 12:13:34;;;;;;;4.97;2.00;;;;;;;;;;6241458;23;20016;-68
2022/12/14 12:16:05;;;;;;;2.97;1.75;;;;;;;;;;6242803;23;20004;-68
2022/12/14 12:18:35;;;;;;;6.38;2.67;;;;;;;;;;6242530;23;20012;-68
2022/12/14 12:21:07;;;;;;;5.13;2.80;;;;;;;;;;6242857;23;20004;-68
2022/12/14 12:23:34;;;;;;;4.17;2.53;;;;;;;;;;6242648;23;20327;-68
2022/12/14 12:26:01;;;;;;;8.23;3.13;;;;;;;;;;6243603;23;20000;-68
2022/12/14 12:28:32;;;;;;;6.03;2.75;;;;;;;;;;6243105;23;20012;-68
2022/12/14 12:31:16;;;;;;;7.57;2.80;;;;;;;;;;6243362;23;20004;-67
2022/12/14 12:34:02;;;;;;;6.47;2.85;;;;;;;;;;6240471;23;20095;-67
2022/12/14 12:36:31;;;;;;;6.07;2.83;;;;;;;;;;6242065;23;20011;-67
2022/12/14 12:39:11;;;;;;;9.30;3.88;;;;;;;;;;6242250;22;20087;-67
2022/12/14 12:41:43;;;;;;;9.52;4.72;;;;;;;;;;6241210;22;20008;-67
2022/12/14 12:44:16;;;;;;;12.00;4.70;;;;;;;;;;6241564;23;20008;-66
2022/12/14 12:46:53;;;;;;;9.07;4.68;;;;;;;;;;6241070;23;20230;-66
2022/12/14 12:49:20;;;;;;;9.40;4.93;;;;;;;;;;6241862;22;20358;-66
2022/12/14 12:51:53;;;;;;;9.50;4.85;;;;;;;;;;6241568;22;20004;-67
2022/12/14 12:54:39;;;;;;;8.82;5.13;;;;;;;;;;6241077;22;20012;-67
2022/12/14 12:57:08;;;;;;;10.23;4.75;;;;;;;;;;6241311;23;20038;-67
2022/12/14 12:59:45;;;;;;;9.82;4.13;;;;;;;;;;6241378;23;20004;-66
2022/12/14 13:02:31;;;;;;;7.97;3.90;;;;;;;;;;6241722;23;20081;-67
2022/12/14 13:04:59;;;;;;;11.57;4.43;;;;;;;;;;6240034;23;20584;-67
2022/12/14 13:07:25;;;;;;;12.05;4.60;;;;;;;;;;6240619;23;20000;-66
2022/12/14 13:10:03;;;;;;;12.98;4.25;;;;;;;;;;6240863;22;20434;-67
2022/12/14 13:12:41;;;;;;;12.50;5.05;;;;;;;;;;6240729;23;20016;-66
2022/12/14 13:15:34;;;;;;;14.40;5.10;;;;;;;;;;6240532;23;20008;-67
2022/12/14 13:18:21;;;;;;;11.80;4.10;;;;;;;;;;6235821;23;20048;-67
2022/12/14 13:20:48;;;;;;;13.63;3.80;;;;;;;;;;6240276;22;20004;-66
2022/12/14 13:23:14;;;;;;;10.00;4.35;;;;;;;;;;6240714;22;20544;-66
2022/12/14 13:25:47;;;;;;;7.35;3.63;;;;;;;;;;6238752;23;20008;-67
2022/12/14 13:28:22;;;;;;;8.25;3.25;;;;;;;;;;6241331;23;20008;-66
2022/12/14 13:30:51;;;;;;;5.88;3.38;;;;;;;;;;6240814;23;20008;-66
2022/12/14 13:33:17;;;;;;;9.98;4.15;;;;;;;;;;6240618;23;20512;-66
2022/12/14 13:35:57;;;;;;;6.20;3.33;;;;;;;;;;6239845;23;20008;-66
2022/12/14 13:38:44;;;;;;;10.55;4.13;;;;;;;;;;6241095;23;20004;-66
2022/12/14 13:41:29;;;;;;;16.92;4.65;;;;;;;;;;6118630;23;20443;-66
2022/12/14 13:43:58;;;;;;;9.55;3.60;;;;;;;;;;6118151;23;20077;-66
2022/12/14 13:46:25;;;;;;;15.88;4.22;;;;;;;;;;6094766;23;20349;-66
2022/12/14 13:48:53;;;;;;;9.30;4.43;;;;;;;;;;6117786;23;20112;-67
2022/12/14 13:51:23;;;;;;;9.90;4.10;;;;;;;;;;6118526;23;20595;-67
2022/12/14 13:53:53;;;;;;;8.32;3.63;;;;;;;;;;6118434;23;20010;-66
2022/12/14 13:56:21;;;;;;;6.03;3.35;;;;;;;;;;6118908;23;20010;-67
2022/12/14 13:58:49;;;;;;;6.82;3.45;;;;;;;;;;6118950;23;20041;-67
2022/12/14 14:01:21;;;;;;;8.15;3.70;;;;;;;;;;6117742;23;20014;-67
2022/12/14 14:03:48;;;;;;;12.00;3.93;;;;;;;;;;6118120;23;20042;-67
2022/12/14 14:06:19;;;;;;;7.05;3.70;;;;;;;;;;6117455;23;20353;-67
2022/12/14 14:08:47;;;;;;;13.88;4.20;;;;;;;;;;6117652;23;20080;-67
2022/12/14 14:11:33;;;;;;;9.32;4.13;;;;;;;;;;6118051;23;20010;-67
2022/12/14 14:14:09;;;;;;;12.10;4.25;;;;;;;;;;6101562;23;20040;-68
2022/12/14 14:16:38;;;;;;;8.85;4.53;;;;;;;;;;6117398;23;20018;-68
2022/12/14 14:19:04;;;;;;;11.77;5.70;;;;;;;;;;6218545;23;20019;-68
2022/12/14 14:21:32;;;;;;;13.05;5.82;;;;;;;;;;6239797;22;20000;-68
2022/12/14 14:24:00;;;;;;;15.48;5.82;;;;;;;;;;6238179;23;20005;-68
2022/12/14 14:26:29;;;;;;;11.68;5.88;;;;;;;;;;6238805;23;20000;-68
2022/12/14 14:29:10;;;;;;;11.80;6.10;;;;;;;;;;6238781;23;20015;-68
2022/12/14 14:32:03;;;;;;;14.82;6.30;;;;;;;;;;6238770;23;20027;-68
2022/12/14 14:34:39;;;;;;;14.77;7.72;;;;;;;;;;6234286;23;20020;-68
2022/12/14 14:37:20;;;;;;;13.93;7.43;;;;;;;;;;6240047;22;20563;-68
2022/12/14 14:40:05;;;;;;;16.38;7.43;;;;;;;;;;6239208;23;20073;-68
2022/12/14 14:42:39;;;;;;;14.02;6.90;;;;;;;;;;6239436;22;20035;-68
2022/12/14 14:45:06;;;;;;;16.85;7.90;;;;;;;;;;6238222;23;20008;-68
2022/12/14 14:47:32;;;;;;;13.32;7.25;;;;;;;;;;6238991;22;20000;-68
2022/12/14 14:50:00;;;;;;;12.65;6.60;;;;;;;;;;6239262;23;20435;-68
2022/12/14 14:52:38;;;;;;;15.95;7.28;;;;;;;;;;6238386;23;20274;-68
2022/12/14 14:55:23;;;;;;;13.60;6.63;;;;;;;;;;6239128;23;20079;-67
2022/12/14 14:57:56;;;;;;;13.43;6.68;;;;;;;;;;6239396;23;20409;-67
2022/12/14 15:00:23;;;;;;;15.30;6.72;;;;;;;;;;6238859;23;20005;-67
2022/12/14 15:02:51;;;;;;;13.38;6.43;;;;;;;;;;6238765;23;20000;-68
2022/12/14 15:05:20;;;;;;;11.50;7.05;;;;;;;;;;6238601;23;20010;-68